Malakoff, Texas
Current Conditions -  °F | °C
As of 1:55 PM on Friday 19 Dec 2014 (Local Time) from KF44 Reporting Station
Overcast Overcast  
Wind Chill: 44°   Ceiling: 700
Heat Index: 48°   Visibility: 10mi
Dew Point: 46°   Wind: 9mph
Humidity: 93%   Direction: 20°NNE
Pressure: 30.1"   Gusts: NA
Location:  32.17°N, 96.01°W
Report Text: KF44 191955Z AUTO 02008KT 10SM OVC007 09/08 A3010 RMK AO2
Loading
Personal Weather Stations






























Interactive Weather Map New forecast layout! Learn more

10-Day Weather Forecast

Advertisements
Track Severe Weather on mobile